createdAt,value
2018-06-25T00:02:45.774Z,4.40
2018-06-25T00:05:14.534Z,3.90
2018-06-25T00:07:43.353Z,4.33
2018-06-25T00:10:12.013Z,4.20
2018-06-25T00:12:41.149Z,4.45
2018-06-25T00:15:09.873Z,4.05
2018-06-25T00:17:38.845Z,4.33
2018-06-25T00:20:07.347Z,4.05
2018-06-25T00:22:35.887Z,4.17
2018-06-25T00:25:04.424Z,5.15
2018-06-25T00:27:32.972Z,4.83
2018-06-25T00:35:00.566Z,4.50
2018-06-25T00:37:29.184Z,4.55
2018-06-25T00:39:58.790Z,4.72
2018-06-25T00:42:27.543Z,4.62
2018-06-25T00:44:57.087Z,4.90
2018-06-25T00:47:25.924Z,5.10
2018-06-25T00:49:57.828Z,4.72
2018-06-25T00:52:27.376Z,4.70
2018-06-25T00:54:57.735Z,5.45
2018-06-25T00:57:28.380Z,5.15
2018-06-25T00:59:59.640Z,5.45
2018-06-25T01:02:28.405Z,4.90
2018-06-25T01:04:56.906Z,4.83
2018-06-25T01:07:26.725Z,5.58
2018-06-25T01:09:55.198Z,5.90
2018-06-25T01:12:29.583Z,5.55
2018-06-25T01:15:27.371Z,5.28
2018-06-25T01:29:48.434Z,5.28
2018-06-25T01:32:17.419Z,5.37
2018-06-25T01:34:47.737Z,5.40
2018-06-25T01:37:18.299Z,5.60
2018-06-25T01:44:59.775Z,4.70
2018-06-25T01:48:21.636Z,5.65
2018-06-25T01:54:04.257Z,4.97
2018-06-25T01:56:40.207Z,5.67
2018-06-25T01:59:10.591Z,5.75
2018-06-25T02:07:02.020Z,5.72
2018-06-25T02:09:44.534Z,4.60
2018-06-25T02:12:15.233Z,4.72
2018-06-25T02:14:44.636Z,4.53
2018-06-25T02:17:14.155Z,5.00
2018-06-25T02:19:46.655Z,4.87
2018-06-25T02:22:18.828Z,4.55
2018-06-25T02:24:48.591Z,4.25
2018-06-25T02:27:18.140Z,3.77
2018-06-25T02:29:49.486Z,3.22
2018-06-25T02:32:22.332Z,3.00
2018-06-25T02:34:51.291Z,2.72
2018-06-25T02:37:21.046Z,2.70
2018-06-25T02:39:53.139Z,2.72
2018-06-25T02:42:22.740Z,2.15
2018-06-25T02:44:51.531Z,2.20
2018-06-25T02:47:35.632Z,2.35
2018-06-25T02:50:19.230Z,2.45
2018-06-25T03:18:24.399Z,2.60
2018-06-25T03:20:53.743Z,2.47
2018-06-25T03:23:24.686Z,3.37
2018-06-25T03:25:59.439Z,3.17
2018-06-25T03:28:29.018Z,2.90
2018-06-25T03:30:57.622Z,3.05
2018-06-25T03:33:31.731Z,3.50
2018-06-25T03:36:02.726Z,3.27
2018-06-25T03:38:32.356Z,3.17
2018-06-25T03:41:02.180Z,3.08
2018-06-25T03:43:30.814Z,3.08
2018-06-25T03:45:59.479Z,3.67
2018-06-25T03:48:27.779Z,3.33
2018-06-25T03:50:57.251Z,3.37
2018-06-25T04:09:49.703Z,3.25
2018-06-25T04:12:18.996Z,3.65
2018-06-25T04:14:49.249Z,3.85
2018-06-25T04:17:18.348Z,3.50
2018-06-25T04:19:56.642Z,3.50
2018-06-25T04:22:28.154Z,3.50
2018-06-25T04:25:13.431Z,3.75
2018-06-25T04:32:51.232Z,3.90
2018-06-25T04:35:20.427Z,3.45
2018-06-25T04:37:49.187Z,3.75
2018-06-25T04:40:22.339Z,3.65
2018-06-25T04:42:51.063Z,3.47
2018-06-25T04:45:24.162Z,3.22
2018-06-25T04:50:27.067Z,2.72
2018-06-25T04:52:55.899Z,2.85
2018-06-25T04:55:28.674Z,2.92
2018-06-25T04:57:57.319Z,2.90
2018-06-25T05:00:27.663Z,2.98
2018-06-25T05:02:56.739Z,2.80
2018-06-25T05:05:26.570Z,2.95
2018-06-25T05:07:55.108Z,2.65
2018-06-25T05:10:23.789Z,3.20
2018-06-25T05:12:52.554Z,3.05
2018-06-25T05:15:22.036Z,2.95
2018-06-25T05:17:59.784Z,2.65
2018-06-25T07:09:58.972Z,1.25
2018-06-25T07:12:51.512Z,1.27
2018-06-25T07:21:48.552Z,0.80
2018-06-25T07:24:59.200Z,1.00
2018-06-25T08:48:49.925Z,1.45
2018-06-25T08:51:19.717Z,1.37
2018-06-25T08:53:49.110Z,1.62
2018-06-25T08:56:21.386Z,1.67
2018-06-25T08:58:50.906Z,1.60
2018-06-25T09:01:20.117Z,2.00
2018-06-25T09:03:50.789Z,1.90
2018-06-25T09:06:19.578Z,1.60
2018-06-25T09:08:48.754Z,1.72
2018-06-25T09:11:19.593Z,1.82
2018-06-25T09:13:49.146Z,1.62
2018-06-25T09:16:19.121Z,1.67
2018-06-25T09:18:48.811Z,1.50
2018-06-25T09:21:19.627Z,1.82
2018-06-25T09:23:48.687Z,1.57
2018-06-25T09:26:20.823Z,1.57
2018-06-25T09:28:50.125Z,1.82
2018-06-25T09:31:21.551Z,1.92
2018-06-25T09:33:50.883Z,1.52
2018-06-25T09:36:22.003Z,1.62
2018-06-25T09:38:51.826Z,1.70
2018-06-25T09:41:22.806Z,1.77
2018-06-25T09:43:52.233Z,1.45
2018-06-25T09:46:21.008Z,1.82
2018-06-25T09:48:51.590Z,1.57
2018-06-25T09:51:22.713Z,1.75
2018-06-25T09:53:52.845Z,1.27
2018-06-25T09:56:22.375Z,1.90
2018-06-25T09:58:51.118Z,2.25
2018-06-25T10:01:19.907Z,1.80
2018-06-25T10:03:50.206Z,1.85
2018-06-25T10:06:19.818Z,1.80
2018-06-25T10:08:49.788Z,1.90
2018-06-25T10:11:18.739Z,1.90
2018-06-25T10:13:49.251Z,1.80
2018-06-25T10:16:19.163Z,1.90
2018-06-25T10:18:49.252Z,1.70
2018-06-25T10:21:18.705Z,2.00
2018-06-25T10:23:48.970Z,2.27
2018-06-25T10:26:17.966Z,2.25
2018-06-25T10:28:47.124Z,2.02
2018-06-25T10:31:17.888Z,2.40
2018-06-25T10:33:47.561Z,2.30
2018-06-25T10:36:20.162Z,2.30
2018-06-25T10:38:49.118Z,2.33
2018-06-25T10:41:18.812Z,2.22
2018-06-25T10:43:50.769Z,2.42
2018-06-25T10:46:20.243Z,2.40
2018-06-25T10:48:50.789Z,2.80
2018-06-25T10:51:19.898Z,2.20
2018-06-25T10:53:50.335Z,2.50
2018-06-25T10:56:27.323Z,2.80
2018-06-25T10:59:25.512Z,2.90
2018-06-25T11:02:00.049Z,2.70
2018-06-25T11:04:48.052Z,2.65
2018-06-25T11:07:55.106Z,2.27
2018-06-25T11:11:31.207Z,2.72
2018-06-25T11:14:33.955Z,2.80
2018-06-25T11:20:25.056Z,2.70
2018-06-25T11:26:10.524Z,2.98
2018-06-25T11:29:12.692Z,3.47
2018-06-25T11:31:45.281Z,3.25
2018-06-25T11:52:31.231Z,2.90
2018-06-25T11:54:59.919Z,3.00
2018-06-25T11:57:30.419Z,3.37
2018-06-25T12:00:00.212Z,3.83
2018-06-25T12:02:30.521Z,3.58
2018-06-25T12:04:59.401Z,4.22
2018-06-25T12:07:28.148Z,3.92
2018-06-25T12:09:57.172Z,4.10
2018-06-25T12:12:34.987Z,4.20
2018-06-25T12:15:03.661Z,4.78
2018-06-25T12:17:32.247Z,4.83
2018-06-25T12:20:00.940Z,4.58
2018-06-25T12:22:29.859Z,4.83
2018-06-25T12:25:00.025Z,4.58
2018-06-25T12:27:28.872Z,5.50
2018-06-25T12:32:53.392Z,4.90
2018-06-25T12:35:21.854Z,4.92
2018-06-25T12:37:50.437Z,4.75
2018-06-25T12:40:18.913Z,4.60
2018-06-25T12:44:25.976Z,5.33
2018-06-25T12:47:33.041Z,5.30
2018-06-25T12:50:53.689Z,4.95
2018-06-25T13:01:41.899Z,4.87
2018-06-25T13:04:18.436Z,4.37
2018-06-25T13:06:47.211Z,4.55
2018-06-25T13:09:19.427Z,5.05
2018-06-25T13:12:03.621Z,5.10
2018-06-25T13:23:05.962Z,6.28
2018-06-25T13:38:27.778Z,8.63
2018-06-25T13:40:56.591Z,8.28
2018-06-25T13:43:25.326Z,9.20
2018-06-25T13:45:56.147Z,7.62
2018-06-25T14:05:16.752Z,6.33
2018-06-25T14:16:21.463Z,7.60
2018-06-25T14:20:06.543Z,6.67
2018-06-25T14:22:56.809Z,6.95
2018-06-25T14:25:33.504Z,7.12
2018-06-25T14:28:08.136Z,6.58
2018-06-25T14:31:42.728Z,6.92
2018-06-25T14:34:17.817Z,7.40
2018-06-25T14:36:48.422Z,6.62
2018-06-25T14:39:20.510Z,7.45
2018-06-25T14:41:56.937Z,7.30
2018-06-25T14:44:30.039Z,6.85
2018-06-25T14:48:22.787Z,6.17
2018-06-25T14:50:52.192Z,6.55
2018-06-25T14:53:21.731Z,5.70
2018-06-25T14:55:50.572Z,6.70
2018-06-25T14:58:19.222Z,6.45
2018-06-25T15:00:49.571Z,6.05
2018-06-25T15:03:19.163Z,6.28
2018-06-25T15:05:48.742Z,6.20
2018-06-25T15:08:19.102Z,6.50
2018-06-25T15:10:47.831Z,6.37
2018-06-25T15:13:19.245Z,6.80
2018-06-25T15:15:48.014Z,5.90
2018-06-25T15:18:18.990Z,6.08
2018-06-25T15:20:48.324Z,5.65
2018-06-25T15:23:19.174Z,5.53
2018-06-25T15:25:47.862Z,5.80
2018-06-25T15:28:17.905Z,6.17
2018-06-25T15:30:49.467Z,5.80
2018-06-25T15:33:18.083Z,5.45
2018-06-25T15:35:49.916Z,5.53
2018-06-25T15:38:31.067Z,5.05
2018-06-25T15:40:59.677Z,5.45
2018-06-25T15:43:28.157Z,5.30
2018-06-25T15:45:56.711Z,5.33
2018-06-25T15:48:25.342Z,5.33
2018-06-25T15:50:53.918Z,5.45
2018-06-25T15:53:23.161Z,5.60
2018-06-25T15:55:51.693Z,5.05
2018-06-25T15:58:21.107Z,5.60
2018-06-25T16:00:50.641Z,6.03
2018-06-25T16:03:23.437Z,5.47
2018-06-25T16:05:52.049Z,6.12
2018-06-25T16:08:21.457Z,5.92
2018-06-25T16:10:51.366Z,6.35
2018-06-25T16:13:20.819Z,6.08
2018-06-25T16:15:49.485Z,5.50
2018-06-25T16:18:19.086Z,5.75
2018-06-25T16:20:48.551Z,5.37
2018-06-25T16:23:18.515Z,5.17
2018-06-25T16:25:48.128Z,4.92
2018-06-25T16:28:17.868Z,5.10
2018-06-25T16:30:47.842Z,5.30
2018-06-25T16:33:17.795Z,5.15
2018-06-25T16:35:48.322Z,4.83
2018-06-25T16:38:19.061Z,4.72
2018-06-25T16:40:49.192Z,4.80
2018-06-25T16:43:17.868Z,4.90
2018-06-25T16:45:47.082Z,5.30
2018-06-25T16:48:18.090Z,4.70
2018-06-25T16:50:55.086Z,4.72
2018-06-25T16:53:23.719Z,5.17
2018-06-25T16:55:52.489Z,5.12
2018-06-25T16:58:22.282Z,5.80
2018-06-25T17:00:51.099Z,4.97
2018-06-25T17:03:23.070Z,4.75
2018-06-25T17:05:51.566Z,4.58
2018-06-25T17:08:21.659Z,5.05
2018-06-25T17:10:51.320Z,4.80
2018-06-25T17:13:20.829Z,5.20
2018-06-25T17:15:52.649Z,4.50
2018-06-25T17:18:41.003Z,4.50
2018-06-25T17:21:13.111Z,4.85
2018-06-25T17:23:49.031Z,4.10
2018-06-25T17:26:19.422Z,4.50
2018-06-25T17:28:48.634Z,4.47
2018-06-25T17:31:19.574Z,3.80
2018-06-25T17:36:48.371Z,3.90
2018-06-25T17:39:18.425Z,4.45
2018-06-25T17:41:51.507Z,4.90
2018-06-25T17:44:22.339Z,4.65
2018-06-25T17:46:52.286Z,4.42
2018-06-25T17:49:23.616Z,4.35
2018-06-25T17:51:52.929Z,4.62
2018-06-25T17:54:21.658Z,4.28
2018-06-25T17:56:50.836Z,4.45
2018-06-25T17:59:22.932Z,4.60
2018-06-25T18:01:52.598Z,4.30
2018-06-25T18:04:23.969Z,4.12
2018-06-25T18:06:52.635Z,4.12
2018-06-25T18:09:21.998Z,4.37
2018-06-25T18:11:51.980Z,3.80
2018-06-25T18:14:21.439Z,4.55
2018-06-25T18:16:50.104Z,4.03
2018-06-25T18:19:18.820Z,4.20
2018-06-25T18:21:48.789Z,4.20
2018-06-25T18:24:17.547Z,4.53
2018-06-25T18:26:48.576Z,4.30
2018-06-25T18:29:18.217Z,4.35
2018-06-25T18:31:52.578Z,4.28
2018-06-25T18:34:24.211Z,3.77
2018-06-25T18:36:53.122Z,3.47
2018-06-25T18:39:22.420Z,4.28
2018-06-25T18:41:53.181Z,4.20
2018-06-25T18:44:21.902Z,4.25
2018-06-25T18:46:51.169Z,4.22
2018-06-25T18:49:19.817Z,4.10
2018-06-25T18:51:49.863Z,4.12
2018-06-25T18:54:20.125Z,4.20
2018-06-25T18:56:52.315Z,4.33
2018-06-25T18:59:21.651Z,4.47
2018-06-25T19:01:52.835Z,4.10
2018-06-25T19:04:24.841Z,4.05
2018-06-25T19:06:54.309Z,4.00
2018-06-25T19:09:23.165Z,4.20
2018-06-25T19:11:52.118Z,4.33
2018-06-25T19:14:21.477Z,3.80
2018-06-25T19:16:51.378Z,4.28
2018-06-25T19:19:20.079Z,4.40
2018-06-25T19:21:48.689Z,3.87
2018-06-25T19:24:20.378Z,4.33
2018-06-25T19:26:49.788Z,3.80
2018-06-25T19:29:21.391Z,4.10
2018-06-25T19:31:50.787Z,4.00
2018-06-25T19:34:19.355Z,3.90
2018-06-25T19:36:50.895Z,3.90
2018-06-25T19:39:19.891Z,4.10
2018-06-25T19:41:50.343Z,3.75
2018-06-25T19:44:20.235Z,3.55
2018-06-25T19:46:50.904Z,4.58
2018-06-25T19:49:20.661Z,3.47
2018-06-25T19:51:51.730Z,4.08
2018-06-25T19:54:20.513Z,3.72
2018-06-25T19:56:50.532Z,3.92
2018-06-25T19:59:19.695Z,4.20
2018-06-25T20:01:48.354Z,3.75
2018-06-25T20:04:17.865Z,3.62
2018-06-25T20:06:46.965Z,4.17
2018-06-25T20:09:17.742Z,3.67
2018-06-25T20:11:47.238Z,3.80
2018-06-25T20:14:18.196Z,3.50
2018-06-25T20:16:48.068Z,3.60
2018-06-25T20:19:18.418Z,3.42
2018-06-25T20:21:49.981Z,3.33
2018-06-25T20:24:18.742Z,3.50
2018-06-25T20:26:47.533Z,3.80
2018-06-25T20:29:19.041Z,3.80
2018-06-25T20:31:49.958Z,3.12
2018-06-25T20:34:21.266Z,3.62
2018-06-25T20:36:49.750Z,3.47
2018-06-25T20:39:29.354Z,3.25
2018-06-25T20:42:45.403Z,3.55
2018-06-25T20:45:23.554Z,3.30
2018-06-25T20:47:58.407Z,3.50
2018-06-25T20:50:35.700Z,3.02
2018-06-25T20:53:21.309Z,3.90
2018-06-25T20:55:50.070Z,3.60
2018-06-25T20:58:18.877Z,3.33
2018-06-25T21:00:48.523Z,3.90
2018-06-25T21:03:18.124Z,3.50
2018-06-25T21:05:48.677Z,3.50
2018-06-25T21:08:17.501Z,3.40
2018-06-25T21:10:48.012Z,3.35
2018-06-25T21:13:18.391Z,3.60
2018-06-25T21:15:48.694Z,3.22
2018-06-25T21:18:18.866Z,3.17
2018-06-25T21:20:48.318Z,3.42
2018-06-25T21:23:17.792Z,3.67
2018-06-25T21:25:48.781Z,3.83
2018-06-25T21:28:27.721Z,3.55
2018-06-25T21:30:56.390Z,3.27
2018-06-25T21:33:25.283Z,3.70
2018-06-25T21:35:53.881Z,3.62
2018-06-25T21:38:22.704Z,3.98
2018-06-25T21:40:51.212Z,3.70
2018-06-25T21:43:20.770Z,3.98
2018-06-25T21:45:49.645Z,3.90
2018-06-25T21:48:18.545Z,3.85
2018-06-25T21:50:51.757Z,3.92
2018-06-25T23:00:58.831Z,5.30
2018-06-25T23:03:27.412Z,5.42
2018-06-25T23:05:57.062Z,5.37
2018-06-25T23:08:26.661Z,5.55
2018-06-25T23:10:56.388Z,5.62
2018-06-25T23:13:25.109Z,5.33
2018-06-25T23:15:53.847Z,5.42
2018-06-25T23:18:22.614Z,5.37
2018-06-25T23:20:51.351Z,5.80
2018-06-25T23:23:20.923Z,5.95
2018-06-25T23:25:50.302Z,6.85
2018-06-25T23:28:22.937Z,6.28
2018-06-25T23:30:51.587Z,6.00
2018-06-25T23:33:22.859Z,6.87
2018-06-25T23:35:51.554Z,6.58
2018-06-25T23:38:20.455Z,6.30
2018-06-25T23:40:50.230Z,6.83
2018-06-25T23:43:20.201Z,6.72
2018-06-25T23:45:50.067Z,6.67
2018-06-25T23:48:18.900Z,6.80
2018-06-25T23:50:49.318Z,6.83
2018-06-25T23:53:20.245Z,6.50
2018-06-25T23:55:50.834Z,6.97
2018-06-25T23:58:20.507Z,6.62
